Time;durP1;ratioP1;P1;durP2;ratioP2;P2;SDS_P1;SDS_P2;PMS_P1;PMS_P2;Temp;Humidity;BMP_temperature;BMP_pressure;BME280_temperature;BME280_humidity;BME280_pressure;Samples;Min_cycle;Max_cycle;Signal;HPM_P1;HPM_P2
2022/03/19 00:01:45;;;;;;;29.03;11.17;;;;;;;-145.18;100.00;46584.22;5013664;28;20041;-66
2022/03/19 00:04:10;;;;;;;25.63;10.30;;;;;;;-145.18;100.00;46586.16;5013112;28;20117;-66
2022/03/19 00:06:40;;;;;;;25.60;11.30;;;;;;;-145.18;100.00;46582.25;5013621;28;20026;-66
2022/03/19 00:09:09;;;;;;;19.50;9.80;;;;;;;-145.18;100.00;46631.09;5013178;28;20041;-66
2022/03/19 00:11:35;;;;;;;23.43;10.77;;;;;;;-145.18;100.00;46584.22;5013617;28;20282;-65
2022/03/19 00:14:00;;;;;;;24.33;10.97;;;;;;;-145.18;100.00;46586.16;5012916;28;20322;-66
2022/03/19 00:16:25;;;;;;;26.27;10.53;;;;;;;-145.18;100.00;46586.16;5013360;28;20454;-66
2022/03/19 00:18:51;;;;;;;26.53;11.70;;;;;;;-145.18;100.00;46625.22;5012936;28;20059;-66
2022/03/19 00:21:17;;;;;;;20.00;10.90;;;;;;;-145.18;100.00;46625.22;5013073;28;20118;-66
2022/03/19 00:23:42;;;;;;;26.67;10.93;;;;;;;-145.18;100.00;46584.22;5012573;28;20038;-66
2022/03/19 00:26:09;;;;;;;28.67;11.70;;;;;;;-145.18;100.00;46580.31;5013046;28;20064;-66
2022/03/19 00:28:37;;;;;;;25.00;11.27;;;;;;;-145.18;100.00;46584.22;5012925;28;20057;-66
2022/03/19 00:31:03;;;;;;;24.37;12.00;;;;;;;-145.18;100.00;46625.22;5013355;28;20302;-66
2022/03/19 00:33:29;;;;;;;20.33;10.93;;;;;;;-145.18;100.00;46631.09;5012151;28;20329;-66
2022/03/19 00:35:54;;;;;;;20.43;10.43;;;;;;;-145.18;100.00;46629.13;5013183;28;20949;-66
2022/03/19 00:38:20;;;;;;;21.60;11.80;;;;;;;-145.18;100.00;46584.22;5012183;28;20142;-66
2022/03/19 00:40:46;;;;;;;22.40;10.77;;;;;;;-145.18;100.00;46578.34;5012859;28;20038;-66
2022/03/19 00:43:12;;;;;;;26.77;10.17;;;;;;;-145.18;100.00;46576.41;5012372;28;20034;-66
2022/03/19 00:45:37;;;;;;;29.27;10.33;;;;;;;-145.18;100.00;46578.34;5012938;28;20073;-65
2022/03/19 00:48:03;;;;;;;23.13;10.37;;;;;;;-145.18;100.00;46574.44;5012506;28;20291;-66
2022/03/19 00:50:28;;;;;;;22.20;10.70;;;;;;;-145.18;100.00;46574.44;5012632;28;20113;-66
2022/03/19 00:52:54;;;;;;;22.63;10.27;;;;;;;-145.18;100.00;46572.50;5012352;28;20062;-66
2022/03/19 00:55:19;;;;;;;24.73;10.73;;;;;;;-145.18;100.00;46572.50;5012249;28;20034;-66
2022/03/19 00:57:46;;;;;;;31.07;10.83;;;;;;;-145.18;100.00;46570.53;5012523;28;20497;-66
2022/03/19 01:00:14;;;;;;;27.17;10.77;;;;;;;-145.18;100.00;46564.69;5012209;28;20061;-66
2022/03/19 01:02:44;;;;;;;20.60;9.93;;;;;;;-145.18;100.00;46566.63;5012707;28;20275;-66
2022/03/19 01:05:11;;;;;;;22.90;11.23;;;;;;;-145.18;100.00;46566.63;5011170;28;20268;-66
2022/03/19 01:07:44;;;;;;;21.67;9.43;;;;;;;-145.18;100.00;46564.69;5010893;28;20301;-66
2022/03/19 01:10:12;;;;;;;27.57;11.10;;;;;;;-145.18;100.00;46566.63;5010012;28;20330;-66
2022/03/19 01:12:38;;;;;;;27.77;10.30;;;;;;;-145.18;100.00;46568.59;5010541;28;20310;-66
2022/03/19 01:15:03;;;;;;;24.10;10.13;;;;;;;-145.18;100.00;46574.44;5010021;28;20310;-66
2022/03/19 01:17:29;;;;;;;24.73;10.53;;;;;;;-145.18;100.00;46574.44;5010959;28;20053;-66
2022/03/19 01:19:54;;;;;;;26.80;10.90;;;;;;;-145.18;100.00;46576.41;5009964;28;20049;-66
2022/03/19 01:22:21;;;;;;;20.43;10.10;;;;;;;-145.18;100.00;46574.44;5012102;28;20303;-66
2022/03/19 01:24:47;;;;;;;20.77;10.03;;;;;;;-145.18;100.00;46615.47;5011647;28;20030;-66
2022/03/19 01:27:12;;;;;;;19.67;10.13;;;;;;;-145.18;100.00;46621.31;5012101;28;20671;-66
2022/03/19 01:29:38;;;;;;;21.93;9.70;;;;;;;-145.18;100.00;46623.28;5011584;28;20096;-66
2022/03/19 01:32:04;;;;;;;19.10;9.83;;;;;;;-145.18;100.00;46619.38;5012178;28;20068;-65
2022/03/19 01:34:29;;;;;;;23.77;10.13;;;;;;;-145.18;100.00;46619.38;5010728;28;20038;-66
2022/03/19 01:36:55;;;;;;;23.00;9.40;;;;;;;-145.18;100.00;46621.31;5011751;28;20342;-66
2022/03/19 01:39:21;;;;;;;20.43;9.37;;;;;;;-145.18;100.00;46574.44;5011311;28;20049;-66
2022/03/19 01:41:46;;;;;;;23.33;9.87;;;;;;;-145.18;100.00;46617.41;5011952;28;20042;-66
2022/03/19 01:44:21;;;;;;;23.97;9.67;;;;;;;-145.18;100.00;46629.13;5011101;28;20070;-66
2022/03/19 01:47:04;;;;;;;24.02;8.55;;;;;;;-145.18;100.00;46633.06;5011831;28;20030;-66
2022/03/19 01:49:30;;;;;;;23.87;9.23;;;;;;;-145.18;100.00;46635.00;5011017;28;20026;-66
2022/03/19 01:51:56;;;;;;;24.87;8.67;;;;;;;-145.18;100.00;46635.00;4997958;28;20297;-65
2022/03/19 01:54:37;;;;;;;22.83;9.20;;;;;;;-145.18;100.00;46650.63;5010929;28;20299;-66
2022/03/19 01:57:03;;;;;;;27.27;9.37;;;;;;;-145.18;100.00;46654.53;5011425;28;20038;-66
2022/03/19 01:59:34;;;;;;;28.37;8.90;;;;;;;-145.18;100.00;46658.44;5010727;28;20274;-66
2022/03/19 02:04:36;;;;;;;35.23;8.60;;;;;;;-145.18;100.00;46660.41;5024633;28;20306;-65
2022/03/19 02:07:02;;;;;;;26.57;9.43;;;;;;;-145.18;100.00;46660.41;5014567;28;20374;-65
2022/03/19 02:09:29;;;;;;;25.83;8.90;;;;;;;-145.18;100.00;46660.41;5010574;28;20298;-65
2022/03/19 02:11:54;;;;;;;18.57;7.70;;;;;;;-145.18;100.00;46660.41;5011143;28;20279;-65
2022/03/19 02:14:20;;;;;;;23.90;8.90;;;;;;;-145.18;100.00;46631.09;4993123;28;20354;-65
2022/03/19 02:16:46;;;;;;;24.57;8.70;;;;;;;-145.18;100.00;46660.41;5011550;28;20108;-65
2022/03/19 02:19:12;;;;;;;30.67;9.07;;;;;;;-145.18;100.00;46660.41;5010413;28;20034;-65
2022/03/19 02:21:48;;;;;;;30.43;8.67;;;;;;;-145.18;100.00;46660.41;5011338;28;20330;-65
2022/03/19 02:26:59;;;;;;;28.00;8.63;;;;;;;-145.18;100.00;46644.78;4996054;28;20266;-65
2022/03/19 02:29:24;;;;;;;27.20;8.60;;;;;;;-145.18;100.00;46642.81;5010861;28;20804;-65
2022/03/19 02:31:53;;;;;;;24.80;8.20;;;;;;;-145.18;100.00;46652.59;5011013;28;20278;-65
2022/03/19 02:34:18;;;;;;;19.90;8.10;;;;;;;-145.18;100.00;46640.88;5010529;28;20038;-65
2022/03/19 02:36:44;;;;;;;27.97;9.13;;;;;;;-145.18;100.00;46640.88;5011059;28;20846;-65
2022/03/19 02:39:20;;;;;;;28.13;8.27;;;;;;;-145.18;100.00;46640.88;5010155;28;20021;-65
2022/03/19 02:41:48;;;;;;;18.63;7.83;;;;;;;-145.18;100.00;46642.81;5010987;28;20030;-65
2022/03/19 02:44:16;;;;;;;23.10;7.57;;;;;;;-145.18;100.00;46646.72;5010399;28;20298;-65
2022/03/19 02:46:44;;;;;;;21.37;7.30;;;;;;;-145.18;100.00;46648.69;5009852;28;20843;-65
2022/03/19 02:49:10;;;;;;;21.50;7.93;;;;;;;-145.18;100.00;46658.44;5009945;28;20280;-65
2022/03/19 02:51:37;;;;;;;25.20;8.10;;;;;;;-145.18;100.00;46660.41;5010817;28;20282;-65
2022/03/19 02:54:04;;;;;;;26.47;9.00;;;;;;;-145.18;100.00;46662.34;4992445;28;20022;-65
2022/03/19 02:56:33;;;;;;;22.07;8.03;;;;;;;-145.18;100.00;46672.13;5010791;28;20271;-65
2022/03/19 02:59:03;;;;;;;26.23;8.17;;;;;;;-145.18;100.00;46670.16;5011879;28;20270;-65
2022/03/19 03:01:29;;;;;;;21.57;8.30;;;;;;;-145.18;100.00;46677.97;5030388;28;20755;-65
2022/03/19 03:03:54;;;;;;;26.37;8.73;;;;;;;-145.18;100.00;46676.03;5029554;28;20326;-65
2022/03/19 03:06:20;;;;;;;25.30;9.00;;;;;;;-145.18;100.00;46679.94;5030332;28;20061;-65
2022/03/19 03:08:46;;;;;;;17.80;7.43;;;;;;;-145.18;100.00;46679.94;5029893;28;20108;-65
2022/03/19 03:11:11;;;;;;;23.03;8.37;;;;;;;-145.18;100.00;46676.03;5012520;28;20350;-65
2022/03/19 03:13:37;;;;;;;18.93;7.43;;;;;;;-145.18;100.00;46676.03;5029778;28;20489;-65
2022/03/19 03:16:02;;;;;;;23.33;8.60;;;;;;;-145.18;100.00;46676.03;5030101;28;20025;-65
2022/03/19 03:18:28;;;;;;;27.37;9.40;;;;;;;-145.18;100.00;46677.97;5029760;28;20477;-65
2022/03/19 03:20:53;;;;;;;26.87;8.70;;;;;;;-145.18;100.00;46677.97;5030348;28;20449;-65
2022/03/19 03:23:19;;;;;;;27.13;9.30;;;;;;;-145.18;100.00;46679.94;5029685;28;20273;-65
2022/03/19 03:25:44;;;;;;;26.23;9.07;;;;;;;-145.18;100.00;46685.78;5030048;28;20421;-65
2022/03/19 03:28:09;;;;;;;23.97;9.13;;;;;;;-145.18;100.00;46691.66;5029782;28;20069;-65
2022/03/19 03:30:35;;;;;;;27.83;8.90;;;;;;;-145.18;100.00;46687.75;5030089;28;20061;-65
2022/03/19 03:33:00;;;;;;;25.30;8.77;;;;;;;-145.18;100.00;46691.66;5029336;28;20072;-65
2022/03/19 03:35:25;;;;;;;27.50;9.97;;;;;;;-145.18;100.00;46679.94;5030302;28;20390;-65
2022/03/19 03:37:52;;;;;;;24.80;9.47;;;;;;;-145.18;100.00;46689.69;5029691;28;20033;-65
2022/03/19 03:40:18;;;;;;;26.20;9.33;;;;;;;-145.18;100.00;46687.75;5029892;28;20402;-65
2022/03/19 03:42:44;;;;;;;23.30;10.17;;;;;;;-145.18;100.00;46681.88;5029595;28;20271;-65
2022/03/19 03:45:10;;;;;;;29.27;9.27;;;;;;;-145.18;100.00;46679.94;5029674;28;20275;-65
2022/03/19 03:47:35;;;;;;;23.13;9.67;;;;;;;-145.18;100.00;46691.66;5029482;28;20040;-65
2022/03/19 03:50:01;;;;;;;30.97;10.33;;;;;;;-145.18;100.00;46683.84;5029752;28;20631;-65
2022/03/19 03:52:27;;;;;;;28.17;9.30;;;;;;;-145.18;100.00;46677.97;5029681;28;20041;-65
2022/03/19 03:54:52;;;;;;;28.70;10.10;;;;;;;-145.18;100.00;46679.94;5029997;28;20500;-65
2022/03/19 03:57:18;;;;;;;26.23;9.63;;;;;;;-145.18;100.00;46681.88;5029664;28;20117;-65
2022/03/19 03:59:43;;;;;;;27.57;10.90;;;;;;;-145.18;100.00;46683.84;5032957;28;20089;-65
2022/03/19 04:02:08;;;;;;;27.27;9.90;;;;;;;-145.18;100.00;46689.69;5033395;28;20160;-65
2022/03/19 04:04:34;;;;;;;32.33;11.53;;;;;;;-145.18;100.00;46681.88;5033137;28;20053;-65
2022/03/19 04:06:59;;;;;;;32.80;10.33;;;;;;;-145.18;100.00;46687.75;5033497;28;20393;-65
2022/03/19 04:09:24;;;;;;;25.13;9.63;;;;;;;-145.18;100.00;46687.75;5032970;28;20025;-65
2022/03/19 04:11:50;;;;;;;24.93;10.77;;;;;;;-145.18;100.00;46685.78;5033177;28;20069;-65
2022/03/19 04:14:15;;;;;;;30.07;10.97;;;;;;;-145.18;100.00;46695.56;5032728;28;20034;-65
2022/03/19 04:16:41;;;;;;;31.63;12.00;;;;;;;-145.18;100.00;46689.69;5033420;28;20033;-65
2022/03/19 04:19:06;;;;;;;25.40;10.60;;;;;;;-145.18;100.00;46683.84;5032659;28;20030;-65
2022/03/19 04:21:31;;;;;;;25.73;10.30;;;;;;;-145.18;100.00;46689.69;5015570;28;20037;-66
2022/03/19 04:23:57;;;;;;;30.27;10.70;;;;;;;-145.18;100.00;46679.94;5032376;28;20117;-65
2022/03/19 04:26:22;;;;;;;23.80;10.67;;;;;;;-145.18;100.00;46685.78;5033042;28;20115;-65
2022/03/19 04:28:47;;;;;;;26.13;10.33;;;;;;;-145.18;100.00;46685.78;5032613;28;20485;-65
2022/03/19 04:31:13;;;;;;;28.20;10.40;;;;;;;-145.18;100.00;46691.66;5032726;28;20108;-65
2022/03/19 04:33:38;;;;;;;29.43;11.37;;;;;;;-145.18;100.00;46685.78;5032649;28;20041;-65
2022/03/19 04:38:48;;;;;;;28.23;11.00;;;;;;;-145.18;100.00;46683.84;5032499;28;20044;-65
2022/03/19 04:41:14;;;;;;;26.77;10.83;;;;;;;-145.18;100.00;46687.75;5032713;28;20271;-65
2022/03/19 04:43:39;;;;;;;28.37;9.97;;;;;;;-145.18;100.00;46689.69;5032283;28;20749;-65
2022/03/19 04:46:05;;;;;;;25.37;9.60;;;;;;;-145.18;100.00;46689.69;5032608;28;20041;-65
2022/03/19 04:48:30;;;;;;;25.27;10.77;;;;;;;-145.18;100.00;46693.59;5032049;28;20116;-65
2022/03/19 04:50:56;;;;;;;28.00;10.50;;;;;;;-145.18;100.00;46677.97;5032739;28;20034;-65
2022/03/19 04:53:22;;;;;;;36.30;10.23;;;;;;;-145.18;100.00;46685.78;5031881;28;20064;-65
2022/03/19 04:55:48;;;;;;;26.20;11.10;;;;;;;-145.18;100.00;46691.66;5032758;28;20294;-65
2022/03/19 04:58:13;;;;;;;30.37;10.70;;;;;;;-145.18;100.00;46687.75;5031601;28;20053;-65
2022/03/19 05:00:38;;;;;;;26.10;10.13;;;;;;;-145.18;100.00;46687.75;5016857;28;20814;-65
2022/03/19 05:03:09;;;;;;;29.80;10.90;;;;;;;-145.18;100.00;46685.78;5020564;28;20053;-65
2022/03/19 05:05:35;;;;;;;30.17;11.10;;;;;;;-145.18;100.00;46691.66;5042367;28;20029;-65
2022/03/19 05:08:00;;;;;;;21.43;10.83;;;;;;;-145.18;100.00;46689.69;5038245;28;20259;-65
2022/03/19 05:13:10;;;;;;;31.23;10.83;;;;;;;-145.18;100.00;46689.69;5028714;28;20032;-65
2022/03/19 05:15:37;;;;;;;29.57;10.80;;;;;;;-145.18;100.00;46691.66;5029392;28;20282;-65
2022/03/19 05:18:02;;;;;;;31.13;10.43;;;;;;;-145.18;100.00;46691.66;5037827;28;20025;-65
2022/03/19 05:20:28;;;;;;;29.00;10.27;;;;;;;-145.18;100.00;46689.69;5023126;28;20820;-65
2022/03/19 05:22:54;;;;;;;23.47;10.00;;;;;;;-145.18;100.00;46685.78;5038913;28;20090;-65
2022/03/19 05:25:19;;;;;;;25.67;10.37;;;;;;;-145.18;100.00;46683.84;5040037;28;20117;-65
2022/03/19 05:27:45;;;;;;;21.13;9.30;;;;;;;-145.18;100.00;46679.94;5030949;28;20448;-65
2022/03/19 05:30:10;;;;;;;28.33;10.53;;;;;;;-145.18;100.00;46691.66;5031187;28;20056;-65
2022/03/19 05:32:37;;;;;;;23.00;10.13;;;;;;;-145.18;100.00;46681.88;5031139;28;20054;-65
2022/03/19 05:35:04;;;;;;;26.27;10.93;;;;;;;-145.18;100.00;46679.94;5031257;28;20474;-65
2022/03/19 05:37:29;;;;;;;28.40;10.57;;;;;;;-145.18;100.00;46679.94;5031757;28;20365;-65
2022/03/19 05:39:55;;;;;;;31.57;11.60;;;;;;;-145.18;100.00;46681.88;5031444;28;20349;-65
2022/03/19 05:42:24;;;;;;;22.70;10.53;;;;;;;-145.18;100.00;46683.84;5031312;28;20037;-65
2022/03/19 05:44:50;;;;;;;24.83;11.50;;;;;;;-145.18;100.00;46681.88;5031287;28;20021;-65
2022/03/19 05:47:16;;;;;;;26.20;10.27;;;;;;;-145.18;100.00;46679.94;5031044;28;20655;-65
2022/03/19 05:49:42;;;;;;;27.57;10.70;;;;;;;-145.18;100.00;46685.78;5013658;28;20037;-65
2022/03/19 05:52:07;;;;;;;20.83;10.13;;;;;;;-145.18;100.00;46674.06;5031454;28;20622;-65
2022/03/19 05:54:33;;;;;;;23.97;10.63;;;;;;;-145.18;100.00;46676.03;5013184;28;20060;-65
2022/03/19 05:56:59;;;;;;;26.63;10.73;;;;;;;-145.18;100.00;46677.97;5031266;28;20045;-65
2022/03/19 05:59:24;;;;;;;34.00;10.83;;;;;;;-145.18;100.00;46674.06;5030945;28;20112;-65
2022/03/19 06:01:49;;;;;;;31.13;10.73;;;;;;;-145.18;100.00;46666.25;5013613;28;20440;-65
2022/03/19 06:04:18;;;;;;;21.57;9.80;;;;;;;-145.18;100.00;46656.50;5030273;28;20062;-65
2022/03/19 06:06:43;;;;;;;27.07;10.87;;;;;;;-145.18;100.00;46660.41;5027783;28;20087;-65
2022/03/19 06:09:09;;;;;;;24.77;10.20;;;;;;;-145.18;100.00;46654.53;5029320;28;20657;-65
2022/03/19 06:11:34;;;;;;;26.77;11.33;;;;;;;-145.18;100.00;46644.78;5029584;28;20092;-65
2022/03/19 06:14:00;;;;;;;21.03;11.00;;;;;;;-145.18;100.00;46633.06;5027453;28;20041;-65
2022/03/19 06:16:26;;;;;;;27.80;9.87;;;;;;;-145.18;100.00;46660.41;5030836;28;20026;-65
2022/03/19 06:18:52;;;;;;;22.83;9.77;;;;;;;-145.18;100.00;46656.50;5030538;28;20061;-65
2022/03/19 06:21:19;;;;;;;23.87;10.23;;;;;;;-145.18;100.00;46642.81;5024365;28;20361;-65
2022/03/19 06:23:47;;;;;;;23.50;9.30;;;;;;;-145.18;100.00;46629.13;5029535;28;20021;-65
2022/03/19 06:26:13;;;;;;;30.00;10.83;;;;;;;-145.18;100.00;46627.19;5028860;28;20269;-65
2022/03/19 06:28:39;;;;;;;23.20;10.20;;;;;;;-145.18;100.00;46582.25;5028683;28;20262;-65
2022/03/19 06:31:05;;;;;;;24.30;10.40;;;;;;;-145.18;100.00;46574.44;5029743;28;20622;-65
2022/03/19 06:33:30;;;;;;;22.67;9.70;;;;;;;-145.18;100.00;46566.63;5029348;28;20514;-65
2022/03/19 06:38:40;;;;;;;35.27;10.33;;;;;;;-145.18;100.00;46554.91;5029580;28;20091;-65
2022/03/19 06:41:06;;;;;;;26.80;10.10;;;;;;;-145.18;100.00;46547.09;5029837;28;20266;-65
2022/03/19 06:43:32;;;;;;;26.20;10.00;;;;;;;-145.18;100.00;46547.09;5030247;28;20079;-65
2022/03/19 06:45:58;;;;;;;20.30;10.13;;;;;;;-145.18;100.00;46547.09;5020426;28;20279;-65
2022/03/19 06:48:25;;;;;;;28.87;12.53;;;;;;;-145.18;100.00;46549.06;5010109;28;20114;-65
2022/03/19 06:50:51;;;;;;;25.30;10.33;;;;;;;-145.18;100.00;46539.28;5010755;28;20346;-65
2022/03/19 06:53:16;;;;;;;26.60;10.73;;;;;;;-145.18;100.00;46549.06;4992150;28;20291;-65
2022/03/19 06:55:42;;;;;;;23.83;11.93;;;;;;;-145.18;100.00;46545.16;5010381;28;20180;-65
2022/03/19 06:58:07;;;;;;;30.87;11.50;;;;;;;-145.18;100.00;46543.19;5009952;28;20038;-65
2022/03/19 07:00:33;;;;;;;25.33;10.17;;;;;;;-145.18;100.00;46545.16;5010361;28;20415;-65
2022/03/19 07:02:58;;;;;;;25.37;10.37;;;;;;;-145.18;100.00;46549.06;5009808;28;20132;-65
2022/03/19 07:05:28;;;;;;;20.23;9.00;;;;;;;-145.18;100.00;46554.91;5010203;28;20034;-65
2022/03/19 07:07:55;;;;;;;27.67;9.70;;;;;;;-145.18;100.00;46554.91;5010556;28;20026;-65
2022/03/19 07:10:20;;;;;;;27.13;10.77;;;;;;;-145.18;100.00;46554.91;5010128;28;20290;-65
2022/03/19 07:12:47;;;;;;;29.03;11.30;;;;;;;-145.18;100.00;46551.00;5009905;28;20751;-65
2022/03/19 07:15:14;;;;;;;28.43;10.37;;;;;;;-145.18;100.00;46560.78;5009932;28;20026;-65
2022/03/19 07:17:40;;;;;;;25.77;9.97;;;;;;;-145.18;100.00;46562.72;5010318;28;20310;-65
2022/03/19 07:20:06;;;;;;;25.93;10.97;;;;;;;-145.18;100.00;46566.63;5009922;28;20319;-66
2022/03/19 07:22:54;;;;;;;26.73;10.30;;;;;;;-145.18;100.00;46578.34;5010139;28;20030;-65
2022/03/19 07:25:22;;;;;;;29.67;10.13;;;;;;;-145.18;100.00;46574.44;5009805;28;20271;-65
2022/03/19 07:27:49;;;;;;;21.23;10.90;;;;;;;-145.18;100.00;46564.69;5010054;28;20270;-65
2022/03/19 07:30:15;;;;;;;21.20;9.87;;;;;;;-145.18;100.00;46572.50;5026380;28;20806;-65
2022/03/19 07:32:41;;;;;;;22.90;9.57;;;;;;;-145.18;100.00;46576.41;5030149;28;20286;-65
2022/03/19 07:35:07;;;;;;;20.53;9.40;;;;;;;-145.18;100.00;46572.50;5032918;28;20044;-65
2022/03/19 07:37:33;;;;;;;20.10;8.63;;;;;;;-145.18;100.00;46574.44;5033461;28;20045;-65
2022/03/19 07:40:00;;;;;;;34.70;9.87;;;;;;;-145.18;100.00;46580.31;5033096;28;20336;-65
2022/03/19 07:42:26;;;;;;;19.20;9.00;;;;;;;-145.18;100.00;46582.25;5032091;28;20277;-65
2022/03/19 07:44:52;;;;;;;24.50;9.10;;;;;;;-145.18;100.00;46576.41;5032043;28;20266;-65
2022/03/19 07:47:18;;;;;;;22.07;9.17;;;;;;;-145.18;100.00;46588.13;5032172;28;20325;-65
2022/03/19 07:49:44;;;;;;;20.30;9.23;;;;;;;-145.18;100.00;46595.94;5032443;28;20037;-65
2022/03/19 07:52:10;;;;;;;21.97;8.37;;;;;;;-145.18;100.00;46590.06;5033269;28;20293;-65
2022/03/19 07:54:36;;;;;;;26.00;8.40;;;;;;;-145.18;100.00;46588.13;5033185;28;20120;-65
2022/03/19 07:57:06;;;;;;;19.23;7.73;;;;;;;-145.18;100.00;46601.78;5033474;28;20286;-65
2022/03/19 07:59:32;;;;;;;21.47;7.57;;;;;;;-145.18;100.00;46605.69;5033519;28;20754;-65
2022/03/19 08:01:58;;;;;;;19.63;6.87;;;;;;;-145.18;100.00;46607.66;5033340;28;20275;-65
2022/03/19 08:04:24;;;;;;;17.77;7.27;;;;;;;-145.18;100.00;46607.66;5015237;28;20806;-65
2022/03/19 08:06:54;;;;;;;24.03;8.43;;;;;;;-145.18;100.00;46629.13;5015368;28;20065;-65
2022/03/19 08:09:21;;;;;;;24.43;6.80;;;;;;;-145.18;100.00;46627.19;5032522;28;20022;-65
2022/03/19 08:11:47;;;;;;;20.80;7.10;;;;;;;-145.18;100.00;46631.09;5032372;28;20278;-65
2022/03/19 08:14:14;;;;;;;18.10;6.60;;;;;;;-145.18;100.00;46627.19;5032517;28;20677;-65
2022/03/19 08:16:41;;;;;;;15.13;6.47;;;;;;;-145.18;100.00;46660.41;5033519;28;20110;-65
2022/03/19 08:19:07;;;;;;;21.83;6.90;;;;;;;-145.18;100.00;46683.84;5032852;28;20254;-65
2022/03/19 08:21:33;;;;;;;22.00;6.57;;;;;;;-145.18;100.00;46683.84;5048238;28;20332;-65
2022/03/19 08:23:58;;;;;;;14.20;5.23;;;;;;;-145.18;100.00;46683.84;5014964;28;20267;-65
2022/03/19 08:26:24;;;;;;;15.87;5.73;;;;;;;-145.18;100.00;46679.94;5033042;28;20501;-65
2022/03/19 08:28:49;;;;;;;15.60;6.27;;;;;;;-145.18;100.00;46705.31;5032382;28;20051;-65
2022/03/19 08:31:14;;;;;;;14.87;5.63;;;;;;;-145.18;100.00;46703.38;5032311;28;20038;-65
2022/03/19 08:33:40;;;;;;;16.83;5.83;;;;;;;-145.18;100.00;46681.88;5031336;28;20041;-65
2022/03/19 08:36:05;;;;;;;11.13;6.17;;;;;;;-145.18;100.00;46717.03;5032753;28;20486;-65
2022/03/19 08:41:15;;;;;;;18.20;5.10;;;;;;;-145.18;100.00;46754.16;5032806;28;20778;-65
2022/03/19 08:43:40;;;;;;;15.47;4.97;;;;;;;-145.18;100.00;46761.97;5032161;28;20282;-65
2022/03/19 08:46:06;;;;;;;17.03;5.30;;;;;;;-145.18;100.00;46738.53;5031646;28;20083;-65
2022/03/19 08:48:32;;;;;;;13.47;4.97;;;;;;;-145.18;100.00;46789.31;5032099;28;20044;-65
2022/03/19 08:51:39;;;;;;;14.50;5.17;;;;;;;-145.18;100.00;46840.09;5032315;28;20067;-65
2022/03/19 08:53:44;;;;;;;14.32;4.97;;;;;;;-145.18;100.00;46801.03;5031909;28;20290;-65
2022/03/19 08:56:09;;;;;;;18.03;5.87;;;;;;;-145.18;100.00;46982.72;5032381;28;20505;-65
2022/03/19 08:58:34;;;;;;;19.03;5.33;;;;;;;-145.18;100.00;46902.63;5031831;28;20042;-65
2022/03/19 09:01:00;;;;;;;21.87;4.83;;;;;;;-145.18;100.00;46986.63;5032153;28;20449;-65
2022/03/19 09:03:26;;;;;;;20.47;5.53;;;;;;;-145.18;100.00;47195.66;5031632;28;20481;-65
2022/03/19 09:05:52;;;;;;;16.47;4.90;;;;;;;-145.18;100.00;47264.03;5014236;28;20035;-65
2022/03/19 09:08:17;;;;;;;18.53;4.53;;;;;;;-145.18;100.00;47160.47;5013501;28;20259;-65
2022/03/19 09:10:42;;;;;;;19.53;4.97;;;;;;;-145.18;100.00;47391.00;5013327;28;20112;-65
2022/03/19 09:13:08;;;;;;;20.67;4.93;;;;;;;-145.18;100.00;47367.56;5021935;28;20133;-65
2022/03/19 09:15:33;;;;;;;11.47;4.60;;;;;;;-145.18;100.00;47371.47;5023974;28;20104;-65
2022/03/19 09:17:59;;;;;;;12.57;4.53;;;;;;;-145.18;100.00;47394.91;5023036;28;20512;-65
2022/03/19 09:20:24;;;;;;;15.87;4.90;;;;;;;-145.18;100.00;47410.56;5003466;28;20022;-65
2022/03/19 09:22:50;;;;;;;16.47;5.93;;;;;;;-145.18;100.00;47404.69;5026384;28;20112;-65
2022/03/19 09:25:15;;;;;;;18.77;5.83;;;;;;;-145.18;100.00;47387.09;5024222;28;20030;-65
2022/03/19 09:27:40;;;;;;;16.37;4.50;;;;;;;-145.18;100.00;47408.59;5021618;28;20025;-65
2022/03/19 09:30:08;;;;;;;17.80;5.50;;;;;;;-145.18;100.00;47381.25;5021617;28;20022;-66
2022/03/19 09:32:34;;;;;;;22.63;4.93;;;;;;;-145.18;100.00;47400.78;5020361;28;20496;-65
2022/03/19 09:35:00;;;;;;;14.13;4.00;;;;;;;-145.18;100.00;47355.84;5022250;28;20288;-65
2022/03/19 09:37:26;;;;;;;14.00;3.77;;;;;;;-145.18;100.00;47338.25;5011606;28;20667;-65
2022/03/19 09:39:52;;;;;;;18.83;4.63;;;;;;;-145.18;100.00;47338.25;5010430;28;20432;-65
2022/03/19 09:42:18;;;;;;;8.87;3.47;;;;;;;-145.18;100.00;47344.13;5011102;28;20021;-65
2022/03/19 09:44:43;;;;;;;13.33;4.33;;;;;;;-145.18;100.00;47336.31;5011281;28;20398;-65
2022/03/19 09:47:09;;;;;;;14.40;4.37;;;;;;;-145.18;100.00;47328.50;5011479;28;20038;-65
2022/03/19 09:49:35;;;;;;;15.83;4.60;;;;;;;-145.18;100.00;47307.00;5011420;28;20037;-65
2022/03/19 09:52:02;;;;;;;18.73;4.80;;;;;;;-145.18;100.00;47320.69;5011126;28;20034;-65
2022/03/19 09:54:28;;;;;;;16.33;4.30;;;;;;;-145.18;100.00;47312.88;5010999;28;20073;-65
2022/03/19 09:56:53;;;;;;;16.53;4.40;;;;;;;-145.18;100.00;47305.06;5002964;28;20366;-65
2022/03/19 09:59:22;;;;;;;19.07;4.63;;;;;;;-145.18;100.00;47314.81;5010844;28;20075;-65
2022/03/19 10:01:48;;;;;;;14.43;4.43;;;;;;;-145.18;100.00;47318.72;5011044;28;20030;-65
2022/03/19 10:04:20;;;;;;;15.47;4.23;;;;;;;-145.18;100.00;47338.25;5010873;28;20296;-65
2022/03/19 10:09:41;;;;;;;17.97;4.77;;;;;;;-145.18;100.00;47287.47;5011432;28;20262;-65
2022/03/19 10:12:12;;;;;;;21.93;5.50;;;;;;;-145.18;100.00;47283.56;5011367;28;20267;-65
2022/03/19 10:14:38;;;;;;;14.37;4.60;;;;;;;-145.18;100.00;47285.50;5010846;28;20298;-65
2022/03/19 10:17:04;;;;;;;16.50;3.77;;;;;;;-145.18;100.00;47289.41;5011310;28;20636;-65
2022/03/19 10:19:29;;;;;;;15.87;4.10;;;;;;;-145.18;100.00;47287.47;5010599;28;20034;-65
2022/03/19 10:22:07;;;;;;;8.33;3.67;;;;;;;-145.18;100.00;47281.59;5011080;28;20030;-65
2022/03/19 10:24:36;;;;;;;14.10;4.03;;;;;;;-145.18;100.00;47281.59;5010486;28;20026;-65
2022/03/19 10:27:02;;;;;;;15.63;4.50;;;;;;;-145.18;100.00;47281.59;5010740;28;20275;-65
2022/03/19 10:29:33;;;;;;;9.97;3.83;;;;;;;-145.18;100.00;47293.31;5010472;28;20260;-65
2022/03/19 10:32:04;;;;;;;14.03;3.70;;;;;;;-145.18;100.00;47275.75;5010936;28;20529;-65
2022/03/19 10:34:30;;;;;;;28.43;4.40;;;;;;;-145.18;100.00;47277.69;5010357;28;20283;-65
2022/03/19 10:36:57;;;;;;;10.73;3.60;;;;;;;-145.18;100.00;47265.97;5010994;28;20320;-65
2022/03/19 10:39:29;;;;;;;14.47;3.40;;;;;;;-145.18;100.00;47279.66;4992848;28;20790;-65
2022/03/19 10:41:56;;;;;;;9.53;3.00;;;;;;;-145.18;100.00;47254.25;5010664;28;20056;-65
2022/03/19 10:44:25;;;;;;;16.10;3.77;;;;;;;-145.18;100.00;47265.97;5010166;28;20271;-65
2022/03/19 10:47:00;;;;;;;15.07;3.20;;;;;;;-145.18;100.00;47264.03;5010751;28;20271;-65
2022/03/19 10:49:30;;;;;;;4.95;2.88;;;;;;;-145.18;100.00;47269.88;5010061;28;20724;-65
2022/03/19 10:51:58;;;;;;;12.40;4.43;;;;;;;-145.18;100.00;47269.88;5010859;28;20494;-65
2022/03/19 10:54:24;;;;;;;7.43;2.80;;;;;;;-145.18;100.00;47234.72;5024970;28;20661;-65
2022/03/19 10:56:51;;;;;;;18.30;3.50;;;;;;;-145.18;100.00;47246.44;5010753;28;20037;-65
2022/03/19 10:59:18;;;;;;;10.80;2.27;;;;;;;-145.18;100.00;47256.22;5009902;28;20022;-65
2022/03/19 11:01:44;;;;;;;6.40;2.20;;;;;;;-145.18;100.00;47254.25;5010309;28;20037;-65
2022/03/19 11:04:11;;;;;;;13.93;2.93;;;;;;;-145.18;100.00;47242.53;5009854;28;20085;-66
2022/03/19 11:06:46;;;;;;;10.53;2.90;;;;;;;-145.18;100.00;47240.56;5010437;28;20048;-65
2022/03/19 11:09:14;;;;;;;9.02;2.92;;;;;;;-145.18;100.00;47246.44;5012139;28;20093;-65
2022/03/19 11:12:14;;;;;;;6.27;2.40;;;;;;;-145.18;100.00;47230.81;5010285;28;20065;-65
2022/03/19 11:14:42;;;;;;;6.27;1.87;;;;;;;-145.18;100.00;47230.81;4999398;28;20061;-65
2022/03/19 11:17:23;;;;;;;5.33;1.90;;;;;;;-145.18;100.00;47223.00;5010429;28;20030;-66